Time;durP1;ratioP1;P1;durP2;ratioP2;P2;SDS_P1;SDS_P2;PMS_P1;PMS_P2;Temp;Humidity;BMP_temperature;BMP_pressure;BME280_temperature;BME280_humidity;BME280_pressure;Samples;Min_cycle;Max_cycle;Signal;HPM_P1;HPM_P2
2023/10/30 00:09:34;;;;;;;3.83;1.10;;;14.40;99.90;;;;;;5003219;28;21087;-85
2023/10/30 00:12:18;;;;;;;3.13;0.90;;;14.50;99.90;;;;;;5005772;28;20513;-86
2023/10/30 00:15:37;;;;;;;3.20;1.13;;;14.50;99.90;;;;;;4999401;28;20449;-84
2023/10/30 00:18:35;;;;;;;2.23;1.03;;;14.50;99.90;;;;;;5004484;28;20446;-85
2023/10/30 00:22:01;;;;;;;1.97;1.30;;;14.40;99.90;;;;;;4989997;28;20462;-85
2023/10/30 00:24:54;;;;;;;4.40;1.53;;;14.50;99.90;;;;;;4991456;28;20485;-84
2023/10/30 00:28:34;;;;;;;;;;;;;;;;;;;;;
2023/10/30 00:31:42;;;;;;;3.23;1.10;;;14.40;99.90;;;;;;4931926;28;20449;-84
2023/10/30 00:34:39;;;;;;;5.20;1.33;;;14.50;99.90;;;;;;5005065;28;20489;-86
2023/10/30 00:37:43;;;;;;;2.20;1.67;;;14.50;99.90;;;;;;4989157;28;20470;-85
2023/10/30 00:40:29;;;;;;;3.47;1.30;;;14.30;99.90;;;;;;4997275;28;20521;-85
2023/10/30 00:43:21;;;;;;;2.27;1.03;;;14.60;99.90;;;;;;4962889;28;20500;-84
2023/10/30 00:53:46;;;;;;;5.03;1.80;;;14.50;99.90;;;;;;4852224;29;20581;-85
2023/10/30 00:56:36;;;;;;;1.60;1.20;;;14.60;99.90;;;;;;4859186;29;20866;-83
2023/10/30 00:59:46;;;;;;;9.10;1.37;;;14.50;99.90;;;;;;4909898;29;20465;-85
2023/10/30 01:02:53;;;;;;;3.80;1.60;;;14.60;99.90;;;;;;4900335;29;20482;-85
2023/10/30 01:05:47;;;;;;;6.20;1.73;;;14.40;99.90;;;;;;4916033;29;20451;-87
2023/10/30 01:08:41;;;;;;;2.53;1.20;;;14.50;99.90;;;;;;4892312;29;20463;-85
2023/10/30 01:12:10;;;;;;;7.10;1.53;;;14.40;99.90;;;;;;4888375;29;20523;-85
2023/10/30 01:15:00;;;;;;;2.10;1.10;;;14.50;99.90;;;;;;4905983;29;20837;-86
2023/10/30 01:18:42;;;;;;;;;;;;;;;;;;;;;
2023/10/30 01:21:49;;;;;;;5.13;1.53;;;14.60;99.90;;;;;;4843329;29;20552;-86
2023/10/30 01:24:47;;;;;;;6.50;1.40;;;14.60;99.90;;;;;;4861499;29;20704;-86
2023/10/30 01:27:45;;;;;;;;;;;;;;;;;;;;;
2023/10/30 01:30:48;;;;;;;3.23;1.27;;;14.60;99.90;;;;;;4904165;28;20516;-86
2023/10/30 01:37:03;;;;;;;2.33;1.07;;;14.40;99.90;;;;;;4941539;28;20468;-87
2023/10/30 01:40:40;;;;;;;4.10;1.53;;;14.30;99.90;;;;;;4934031;28;20448;-85
2023/10/30 01:43:35;;;;;;;5.13;1.13;;;14.60;99.90;;;;;;4951618;28;20533;-85
2023/10/30 01:47:02;;;;;;;3.60;1.40;;;14.60;99.90;;;;;;4940091;28;20450;-85
2023/10/30 01:50:13;;;;;;;6.10;1.27;;;14.50;99.90;;;;;;4939543;28;20464;-84
2023/10/30 01:53:17;;;;;;;3.23;1.10;;;14.50;99.90;;;;;;4918266;28;20496;-83
2023/10/30 01:56:25;;;;;;;5.93;1.70;;;14.60;99.90;;;;;;4928319;28;20489;-85
2023/10/30 01:59:47;;;;;;;4.37;1.40;;;14.50;99.90;;;;;;4979933;28;20525;-86
2023/10/30 02:06:14;;;;;;;1.87;1.23;;;14.40;99.90;;;;;;4932526;28;20524;-84
2023/10/30 02:09:33;;;;;;;4.47;1.13;;;14.50;99.90;;;;;;4982252;28;23097;-85
2023/10/30 02:12:38;;;;;;;3.83;1.70;;;14.50;99.90;;;;;;4988454;28;20470;-85
2023/10/30 02:19:03;;;;;;;3.23;1.10;;;14.50;99.90;;;;;;4990625;28;20459;-85
2023/10/30 02:21:56;;;;;;;4.50;1.50;;;14.50;99.90;;;;;;5003680;28;20446;-84
2023/10/30 02:24:49;;;;;;;2.23;1.07;;;14.60;99.90;;;;;;4942799;28;21576;-86
2023/10/30 02:28:03;;;;;;;5.70;1.20;;;14.40;99.90;;;;;;4973459;28;20564;-86
2023/10/30 02:31:14;;;;;;;;;;;;;;;;;;;;;
2023/10/30 02:34:35;;;;;;;4.63;1.40;;;14.50;99.90;;;;;;4973296;28;20498;-86
2023/10/30 02:37:37;;;;;;;4.00;1.40;;;14.60;99.90;;;;;;4986552;28;20466;-84
2023/10/30 02:40:44;;;;;;;;;;;;;;;;;;;;;
2023/10/30 02:43:53;;;;;;;3.67;2.00;;;14.60;99.90;;;;;;5012159;28;20575;-86
2023/10/30 02:49:57;;;;;;;5.67;1.10;;;14.50;99.90;;;;;;4892178;29;20469;-82
2023/10/30 02:53:10;;;;;;;3.77;1.20;;;14.50;99.90;;;;;;4937321;28;20593;-86
2023/10/30 02:55:55;;;;;;;2.70;1.10;;;14.40;99.90;;;;;;4921690;28;20452;-86
2023/10/30 02:58:54;;;;;;;5.93;1.33;;;14.60;99.90;;;;;;4941600;28;21564;-88
2023/10/30 03:01:43;;;;;;;3.30;1.20;;;14.60;99.90;;;;;;4886506;29;20596;-86
2023/10/30 03:04:34;;;;;;;4.30;1.10;;;14.50;99.90;;;;;;5030037;23;20516;-87
2023/10/30 03:08:01;;;;;;;2.10;0.93;;;14.50;99.90;;;;;;5004311;28;20860;-86
2023/10/30 03:11:09;;;;;;;6.20;1.60;;;14.40;99.90;;;;;;5005122;28;20453;-86
2023/10/30 03:14:18;;;;;;;1.90;1.13;;;14.40;99.90;;;;;;4998392;28;21176;-85
2023/10/30 03:17:15;;;;;;;2.70;1.10;;;14.40;99.90;;;;;;4959028;28;21036;-85
2023/10/30 03:20:12;;;;;;;;;;;;;;;;;;;;;
2023/10/30 03:23:02;;;;;;;4.43;1.00;;;14.50;99.90;;;;;;4965538;28;20530;-84
2023/10/30 03:25:54;;;;;;;2.20;1.00;;;14.50;99.90;;;;;;4959476;28;20506;-85
2023/10/30 03:28:56;;;;;;;2.23;1.07;;;14.60;99.90;;;;;;4956534;28;20542;-85
2023/10/30 03:32:07;;;;;;;4.70;1.10;;;14.60;99.90;;;;;;4959752;28;20940;-85
2023/10/30 03:35:15;;;;;;;3.60;2.20;;;14.50;99.90;;;;;;5006660;28;20515;-87
2023/10/30 03:38:42;;;;;;;2.97;1.67;;;14.50;99.90;;;;;;5002644;28;20464;-84
2023/10/30 03:41:29;;;;;;;4.40;1.40;;;14.50;99.90;;;;;;5002785;28;20475;-86
2023/10/30 03:44:19;;;;;;;8.00;1.10;;;14.50;99.90;;;;;;5024609;28;20537;-85
2023/10/30 03:47:11;;;;;;;3.50;1.50;;;14.50;99.90;;;;;;5009446;28;22885;-83
2023/10/30 03:50:25;;;;;;;4.73;1.47;;;14.50;99.90;;;;;;5019259;28;20575;-84
2023/10/30 03:53:27;;;;;;;3.10;1.90;;;14.40;99.90;;;;;;5015873;28;22904;-83
2023/10/30 03:56:33;;;;;;;5.60;1.60;;;14.50;99.90;;;;;;4992428;28;20426;-86
2023/10/30 03:59:18;;;;;;;5.10;1.50;;;14.30;99.90;;;;;;5019643;28;20462;-83
2023/10/30 04:02:10;;;;;;;2.80;1.10;;;14.40;99.90;;;;;;5007589;28;21074;-87
2023/10/30 04:05:20;;;;;;;9.87;1.27;;;14.30;99.90;;;;;;5007351;28;20487;-85
2023/10/30 04:08:22;;;;;;;6.33;1.63;;;14.30;99.90;;;;;;5018833;28;20480;-84
2023/10/30 04:11:47;;;;;;;4.37;1.20;;;14.30;99.90;;;;;;5009740;28;20554;-83
2023/10/30 04:17:58;;;;;;;3.43;1.23;;;14.20;99.90;;;;;;5017060;28;20472;-84
2023/10/30 04:20:45;;;;;;;2.20;1.30;;;14.20;99.90;;;;;;4999451;28;20469;-83
2023/10/30 04:23:36;;;;;;;5.83;1.50;;;14.20;99.90;;;;;;5021323;28;20477;-84
2023/10/30 04:30:35;;;;;;;3.60;1.00;;;14.20;99.90;;;;;;4992105;28;20797;-85
2023/10/30 04:34:29;;;;;;;7.53;1.17;;;14.20;99.90;;;;;;5007902;28;20584;-87
2023/10/30 04:37:37;;;;;;;6.73;1.53;;;14.10;99.90;;;;;;5003331;28;20453;-84
2023/10/30 04:47:53;;;;;;;3.90;1.27;;;14.00;99.90;;;;;;4942355;28;20459;-84
2023/10/30 04:51:39;;;;;;;5.53;1.67;;;14.00;99.90;;;;;;5009263;28;20453;-86
2023/10/30 04:54:39;;;;;;;2.90;1.70;;;13.90;99.90;;;;;;5007495;28;20576;-84
2023/10/30 04:58:11;;;;;;;3.57;1.30;;;14.10;99.90;;;;;;5011025;28;20449;-84
2023/10/30 05:01:17;;;;;;;2.30;1.20;;;14.20;99.90;;;;;;4936744;28;20552;-85
2023/10/30 05:07:53;;;;;;;3.33;1.00;;;14.20;99.90;;;;;;5035038;28;20767;-84
2023/10/30 05:11:07;;;;;;;4.03;1.53;;;14.20;99.90;;;;;;5009899;28;20457;-84
2023/10/30 05:14:19;;;;;;;6.30;1.73;;;13.90;99.90;;;;;;4916656;28;20520;-83
2023/10/30 05:17:29;;;;;;;2.93;0.97;;;14.20;99.90;;;;;;5017296;28;20520;-85
2023/10/30 05:20:33;;;;;;;4.80;1.30;;;14.20;99.90;;;;;;5031273;28;20978;-85
2023/10/30 05:24:08;;;;;;;3.30;1.60;;;14.20;99.90;;;;;;5011622;28;20486;-86
2023/10/30 05:27:27;;;;;;;5.27;1.50;;;14.20;99.90;;;;;;5027709;28;20561;-83
2023/10/30 05:30:25;;;;;;;;;;;;;;;;;;;;;
2023/10/30 05:33:45;;;;;;;;;;;;;;;;;;;;;
2023/10/30 05:36:48;;;;;;;5.63;2.30;;;14.20;99.90;;;;;;5036716;28;20508;-84
2023/10/30 05:39:45;;;;;;;2.60;1.27;;;14.10;99.90;;;;;;4986829;28;20441;-84
2023/10/30 05:45:39;;;;;;;1.47;1.00;;;14.00;99.90;;;;;;5028637;28;20445;-86
2023/10/30 05:51:54;;;;;;;2.90;1.00;;;14.00;99.90;;;;;;5047556;28;20452;-84
2023/10/30 05:54:59;;;;;;;6.20;2.80;;;13.80;99.90;;;;;;5036639;28;20481;-83
2023/10/30 05:58:19;;;;;;;4.97;1.50;;;13.80;99.90;;;;;;5029587;28;20512;-85
2023/10/30 06:01:13;;;;;;;3.03;1.33;;;13.90;99.90;;;;;;4962715;28;20429;-85
2023/10/30 06:04:24;;;;;;;4.13;1.33;;;13.80;99.90;;;;;;5008808;28;20500;-85
2023/10/30 06:07:56;;;;;;;2.33;1.27;;;13.80;99.90;;;;;;5009420;28;20514;-82
2023/10/30 06:10:59;;;;;;;3.87;1.50;;;13.80;99.90;;;;;;5014871;28;20591;-82
2023/10/30 06:14:35;;;;;;;1.83;1.40;;;13.80;99.90;;;;;;5011272;28;20536;-85
2023/10/30 06:21:01;;;;;;;;;;;;;;;;;;;;;
2023/10/30 06:24:31;;;;;;;5.87;1.70;;;13.60;99.90;;;;;;5031795;28;20514;-85
2023/10/30 06:30:46;;;;;;;3.60;1.57;;;13.70;99.90;;;;;;5010981;28;20449;-82
2023/10/30 06:33:54;;;;;;;2.27;1.40;;;13.80;99.90;;;;;;5031251;28;20483;-85
2023/10/30 06:36:57;;;;;;;4.87;1.70;;;13.80;99.90;;;;;;5018290;28;20449;-85
2023/10/30 06:40:05;;;;;;;7.03;2.10;;;13.80;99.90;;;;;;5040736;28;20524;-83
2023/10/30 06:43:21;;;;;;;3.00;1.50;;;13.80;99.90;;;;;;5035072;28;20449;-85
2023/10/30 06:46:16;;;;;;;7.83;1.90;;;13.60;99.90;;;;;;5024403;28;20442;-84
2023/10/30 06:49:13;;;;;;;2.83;1.70;;;13.80;99.90;;;;;;5030126;28;20481;-85
2023/10/30 06:52:11;;;;;;;4.13;2.17;;;13.60;99.90;;;;;;5022564;28;20476;-87
2023/10/30 06:55:45;;;;;;;;;;;;;;;;;;;;;
2023/10/30 06:58:52;;;;;;;4.90;2.07;;;13.70;99.90;;;;;;5043382;28;20458;-85
2023/10/30 07:05:36;;;;;;;;;;;;;;;;;;;;;
2023/10/30 07:08:42;;;;;;;2.17;1.70;;;13.70;99.90;;;;;;4988624;28;20490;-85
2023/10/30 07:11:47;;;;;;;4.30;1.73;;;13.70;99.90;;;;;;4956582;28;20452;-83
2023/10/30 07:15:44;;;;;;;5.13;1.97;;;13.80;99.90;;;;;;4969925;28;21009;-84
2023/10/30 07:18:33;;;;;;;3.80;1.93;;;13.80;99.90;;;;;;4953412;28;20468;-83
2023/10/30 07:21:52;;;;;;;4.67;2.10;;;13.60;99.90;;;;;;4952056;28;20551;-84
2023/10/30 07:25:05;;;;;;;2.20;1.80;;;13.80;99.90;;;;;;4956451;28;20442;-85
2023/10/30 07:32:27;;;;;;;5.90;2.37;;;14.10;99.90;;;;;;4941699;28;20531;-86
2023/10/30 07:35:28;;;;;;;2.40;2.20;;;14.00;99.90;;;;;;4965929;28;20534;-83
2023/10/30 07:38:41;;;;;;;5.53;2.50;;;13.80;99.90;;;;;;4965634;28;21011;-85
2023/10/30 07:45:20;;;;;;;4.93;2.20;;;14.00;99.90;;;;;;4999035;28;21191;-86
2023/10/30 07:55:34;;;;;;;4.10;2.40;;;14.30;99.90;;;;;;4974699;28;20574;-86
2023/10/30 07:58:59;;;;;;;6.13;2.23;;;14.30;99.90;;;;;;4972932;28;20448;-85
2023/10/30 08:13:49;;;;;;;2.50;2.03;;;14.50;99.90;;;;;;4962659;28;20459;-85
2023/10/30 08:17:22;;;;;;;2.50;1.80;;;14.60;99.90;;;;;;4964300;28;20434;-85
2023/10/30 08:24:35;;;;;;;6.90;2.50;;;14.80;99.90;;;;;;4986970;28;20447;-87
2023/10/30 08:31:12;;;;;;;4.23;2.17;;;14.90;99.90;;;;;;4982454;28;21299;-86
2023/10/30 08:48:46;;;;;;;2.40;1.70;;;15.20;99.90;;;;;;4953158;28;20458;-84
2023/10/30 08:59:56;;;;;;;5.00;1.60;;;15.40;99.90;;;;;;4995501;28;20477;-84
2023/10/30 09:03:06;;;;;;;2.00;1.80;;;15.50;99.90;;;;;;4960076;28;20497;-87
2023/10/30 09:06:48;;;;;;;;;;;;;;;;;;;;;
2023/10/30 09:09:44;;;;;;;3.63;1.90;;;15.60;99.90;;;;;;4988240;28;20455;-86
2023/10/30 09:16:22;;;;;;;2.83;1.40;;;15.50;99.90;;;;;;4982353;28;20536;-87
2023/10/30 09:19:31;;;;;;;1.30;1.20;;;15.70;99.90;;;;;;4964962;28;20465;-85
2023/10/30 09:30:30;;;;;;;;;;;;;;;;;;;;;
2023/10/30 09:33:42;;;;;;;;;;;;;;;;;;;;;
2023/10/30 09:40:16;;;;;;;2.43;1.80;;;16.40;99.30;;;;;;4981705;28;20442;-86
2023/10/30 09:43:09;;;;;;;2.13;1.30;;;16.30;99.10;;;;;;4971750;28;20486;-85
2023/10/30 09:54:06;;;;;;;1.30;1.20;;;16.00;99.40;;;;;;4986773;28;20474;-84
2023/10/30 10:00:44;;;;;;;1.43;0.97;;;15.80;99.70;;;;;;4927408;28;20460;-84
2023/10/30 10:03:54;;;;;;;2.60;2.23;;;15.60;99.90;;;;;;4913072;29;20572;-87
2023/10/30 10:06:53;;;;;;;1.83;1.67;;;15.80;99.90;;;;;;4977563;28;20461;-86
2023/10/30 10:10:20;;;;;;;3.00;1.30;;;15.80;99.90;;;;;;4993748;28;20457;-86
2023/10/30 10:13:37;;;;;;;;;;;;;;;;;;;;;
2023/10/30 10:17:44;;;;;;;1.60;1.33;;;16.00;99.90;;;;;;4940771;28;20465;-85
2023/10/30 10:20:56;;;;;;;1.80;1.60;;;16.10;99.90;;;;;;4930505;28;20840;-85
2023/10/30 10:23:50;;;;;;;1.40;1.03;;;16.10;99.90;;;;;;4911105;28;20681;-85
2023/10/30 10:30:18;;;;;;;1.30;1.23;;;16.10;99.90;;;;;;4934290;28;20469;-85
2023/10/30 10:33:30;;;;;;;1.80;1.30;;;16.00;99.90;;;;;;4922276;28;20464;-85
2023/10/30 10:36:59;;;;;;;1.33;1.23;;;16.00;99.90;;;;;;4932419;28;20894;-86
2023/10/30 10:40:07;;;;;;;2.57;1.23;;;15.90;99.90;;;;;;4922837;29;21270;-84
2023/10/30 10:43:07;;;;;;;1.30;1.20;;;16.10;99.90;;;;;;4902493;29;20475;-87
2023/10/30 10:46:28;;;;;;;2.57;1.17;;;16.20;99.90;;;;;;4871689;29;21468;-85
2023/10/30 10:49:37;;;;;;;;;;;;;;;;;;;;;
2023/10/30 10:52:53;;;;;;;0.70;0.70;;;16.10;99.60;;;;;;4887309;29;20589;-84
2023/10/30 10:56:12;;;;;;;1.83;1.00;;;16.20;99.90;;;;;;4925976;28;20611;-87
2023/10/30 11:17:30;;;;;;;0.73;0.73;;;16.90;98.90;;;;;;4882371;29;20483;-86
2023/10/30 11:20:10;;;;;;;0.90;0.70;;;17.20;98.30;;;;;;4880648;29;20536;-87
2023/10/30 11:22:39;;;;;;;1.00;0.90;;;17.20;98.10;;;;;;4924902;28;20616;-84
2023/10/30 11:25:27;;;;;;;1.10;0.80;;;17.00;98.10;;;;;;4930988;28;20475;-83
2023/10/30 11:27:58;;;;;;;0.60;0.60;;;17.30;97.80;;;;;;4939644;28;20452;-86
2023/10/30 11:30:27;;;;;;;0.60;0.60;;;17.20;97.80;;;;;;4941819;28;20564;-83
2023/10/30 11:32:58;;;;;;;0.57;0.57;;;17.00;98.30;;;;;;4953545;28;20605;-86
2023/10/30 11:35:30;;;;;;;1.23;0.60;;;17.40;97.80;;;;;;4934490;28;20833;-85
2023/10/30 11:38:15;;;;;;;0.93;0.77;;;17.30;97.70;;;;;;4936269;28;20449;-87
2023/10/30 11:41:03;;;;;;;0.60;0.60;;;17.20;97.70;;;;;;4956243;28;20448;-87
2023/10/30 11:43:34;;;;;;;0.67;0.57;;;17.10;97.90;;;;;;4937115;28;20484;-84
2023/10/30 11:46:26;;;;;;;1.07;0.77;;;17.20;97.50;;;;;;4961359;28;20594;-88
2023/10/30 11:49:19;;;;;;;0.60;0.60;;;16.80;97.90;;;;;;4944577;28;20449;-88
2023/10/30 11:51:59;;;;;;;0.60;0.50;;;16.70;98.60;;;;;;5009082;28;20561;-86
2023/10/30 11:54:34;;;;;;;0.67;0.63;;;16.80;98.50;;;;;;5011169;28;20978;-86
2023/10/30 11:57:03;;;;;;;0.80;0.70;;;16.50;98.90;;;;;;5011195;28;20472;-83
2023/10/30 11:59:32;;;;;;;0.70;0.50;;;16.30;99.30;;;;;;5008427;28;20467;-85
2023/10/30 12:02:11;;;;;;;0.60;0.60;;;16.60;99.20;;;;;;5004706;28;20446;-87
2023/10/30 12:04:39;;;;;;;1.17;0.67;;;16.90;99.10;;;;;;5007224;28;20472;-85
2023/10/30 12:07:15;;;;;;;0.60;0.50;;;17.00;98.60;;;;;;4997770;28;20550;-87
2023/10/30 12:09:56;;;;;;;5.70;0.60;;;16.90;98.60;;;;;;4995164;28;20476;-83
2023/10/30 12:12:28;;;;;;;0.73;0.60;;;17.00;98.50;;;;;;5002717;28;20489;-87
2023/10/30 12:15:46;;;;;;;1.60;0.60;;;17.00;98.60;;;;;;4996130;28;20565;-85
2023/10/30 12:19:01;;;;;;;1.13;0.70;;;17.00;98.50;;;;;;4997592;28;20478;-86
2023/10/30 12:29:53;;;;;;;0.93;0.50;;;17.10;98.30;;;;;;4977284;28;20441;-86
2023/10/30 12:32:55;;;;;;;0.50;0.50;;;17.10;98.50;;;;;;5012684;28;20501;-84
2023/10/30 12:35:57;;;;;;;0.40;0.40;;;16.90;98.50;;;;;;5011604;28;20485;-86
2023/10/30 12:38:45;;;;;;;0.60;0.50;;;16.90;98.80;;;;;;5023088;28;21907;-85
2023/10/30 12:41:47;;;;;;;0.40;0.40;;;16.80;99.00;;;;;;5008946;28;20469;-86
2023/10/30 12:44:42;;;;;;;1.03;0.63;;;16.80;99.10;;;;;;5006402;28;20454;-86
2023/10/30 12:47:45;;;;;;;0.73;0.60;;;17.00;98.60;;;;;;5006119;28;20534;-85
2023/10/30 12:51:22;;;;;;;;;;;;;;;;;;;;;
2023/10/30 12:54:47;;;;;;;;;;;;;;;;;;;;;
2023/10/30 12:57:46;;;;;;;1.20;0.70;;;17.00;98.30;;;;;;4965496;28;20562;-85
2023/10/30 13:00:40;;;;;;;1.60;1.10;;;17.10;98.10;;;;;;4954531;28;20561;-86
2023/10/30 13:04:09;;;;;;;0.80;0.60;;;17.00;98.30;;;;;;4962811;28;20463;-85
2023/10/30 13:07:00;;;;;;;;;;;;;;;;;;;;;
2023/10/30 13:13:35;;;;;;;0.50;0.50;;;17.00;98.20;;;;;;5006253;28;20514;-84
2023/10/30 13:16:50;;;;;;;1.03;0.60;;;17.20;98.00;;;;;;4896204;29;20582;-84
2023/10/30 13:20:07;;;;;;;1.00;0.80;;;17.20;97.70;;;;;;4975413;28;20442;-86
2023/10/30 13:22:49;;;;;;;1.27;1.17;;;17.20;97.90;;;;;;5014878;28;20474;-85
2023/10/30 13:26:05;;;;;;;1.00;0.60;;;16.90;98.00;;;;;;4997522;28;21025;-84
2023/10/30 13:29:14;;;;;;;0.50;0.50;;;16.90;98.50;;;;;;5014691;28;20514;-86
2023/10/30 13:32:36;;;;;;;1.53;0.70;;;17.00;98.10;;;;;;4977730;28;20549;-86
2023/10/30 13:35:57;;;;;;;1.73;0.83;;;17.00;98.20;;;;;;4999947;28;20481;-85
2023/10/30 13:39:03;;;;;;;1.00;0.60;;;17.00;98.20;;;;;;5025094;28;20456;-86
2023/10/30 13:41:50;;;;;;;0.77;0.60;;;17.00;98.30;;;;;;5026394;28;20426;-87
2023/10/30 13:45:02;;;;;;;0.70;0.40;;;17.10;98.30;;;;;;5020757;28;20438;-86
2023/10/30 13:48:12;;;;;;;0.60;0.53;;;17.00;98.20;;;;;;5025892;28;20485;-86
2023/10/30 13:50:57;;;;;;;0.73;0.60;;;16.90;98.50;;;;;;5018521;28;20500;-84
2023/10/30 13:54:29;;;;;;;;;;;;;;;;;;;;;
2023/10/30 13:57:42;;;;;;;0.80;0.77;;;16.60;99.10;;;;;;4996033;28;20506;-86
2023/10/30 14:07:47;;;;;;;0.87;0.83;;;16.70;99.10;;;;;;4989281;28;21350;-84
2023/10/30 14:10:53;;;;;;;0.50;0.50;;;16.70;99.10;;;;;;5027886;28;20426;-86
2023/10/30 14:17:15;;;;;;;0.80;0.60;;;16.90;99.10;;;;;;5015782;28;20467;-83
2023/10/30 14:19:48;;;;;;;1.80;0.60;;;16.80;99.50;;;;;;5013388;28;20454;-85
2023/10/30 14:23:22;;;;;;;0.90;0.70;;;16.80;99.30;;;;;;4923266;29;20538;-84
2023/10/30 14:26:06;;;;;;;1.00;0.70;;;16.70;99.60;;;;;;4871551;29;20442;-85
2023/10/30 14:29:38;;;;;;;;;;;;;;;;;;;;;
2023/10/30 14:33:11;;;;;;;1.10;0.80;;;16.50;99.90;;;;;;4841655;29;20488;-86
2023/10/30 14:36:23;;;;;;;1.53;0.80;;;16.70;99.90;;;;;;4845928;29;20536;-86
2023/10/30 14:39:36;;;;;;;1.77;0.80;;;16.80;99.50;;;;;;4793657;29;20447;-87
2023/10/30 14:42:33;;;;;;;;;;;;;;;;;;;;;
2023/10/30 14:45:50;;;;;;;0.90;0.67;;;16.60;99.70;;;;;;4883225;29;20416;-85
2023/10/30 14:49:10;;;;;;;0.90;0.90;;;16.50;99.70;;;;;;4878208;29;20445;-85
2023/10/30 14:52:56;;;;;;;;;;;;;;;;;;;;;
2023/10/30 14:56:29;;;;;;;0.70;0.70;;;16.80;99.80;;;;;;4887065;29;20496;-86
2023/10/30 14:59:54;;;;;;;1.20;1.07;;;16.40;99.90;;;;;;4880825;29;20825;-86
2023/10/30 15:03:01;;;;;;;1.30;1.20;;;16.40;99.90;;;;;;4899392;29;20979;-86
2023/10/30 15:06:00;;;;;;;1.13;0.80;;;16.40;99.90;;;;;;4944015;29;20464;-86
2023/10/30 15:09:02;;;;;;;0.73;0.73;;;16.20;99.90;;;;;;4959820;28;20958;-85
2023/10/30 15:11:30;;;;;;;1.67;1.57;;;16.40;99.90;;;;;;4963934;28;20800;-88
2023/10/30 15:14:14;;;;;;;1.67;0.90;;;16.40;99.90;;;;;;4966008;28;20472;-84
2023/10/30 15:17:44;;;;;;;1.10;1.00;;;16.60;99.90;;;;;;5013975;28;20476;-86
2023/10/30 15:20:24;;;;;;;2.40;1.87;;;16.60;99.90;;;;;;5001606;28;20470;-81
2023/10/30 15:23:54;;;;;;;1.13;1.00;;;16.70;99.90;;;;;;5002273;28;20438;-86
2023/10/30 15:26:50;;;;;;;1.10;1.00;;;16.70;99.90;;;;;;5019626;28;20449;-86
2023/10/30 15:30:17;;;;;;;1.60;1.00;;;16.70;99.90;;;;;;4961859;28;20422;-86
2023/10/30 15:33:10;;;;;;;2.40;1.20;;;16.50;99.90;;;;;;5012633;28;20444;-85
2023/10/30 15:36:18;;;;;;;1.80;0.90;;;16.60;99.90;;;;;;4988886;28;20558;-86
2023/10/30 15:39:14;;;;;;;2.23;1.20;;;16.70;99.90;;;;;;5004248;28;20465;-85
2023/10/30 15:45:30;;;;;;;1.60;1.00;;;16.50;99.90;;;;;;5001129;28;20471;-88
2023/10/30 15:48:08;;;;;;;2.37;1.53;;;16.50;99.90;;;;;;4996815;28;21316;-87
2023/10/30 15:51:02;;;;;;;3.80;2.90;;;16.40;99.90;;;;;;5011028;28;20444;-88
2023/10/30 15:54:21;;;;;;;;;;;;;;;;;;;;;
2023/10/30 15:57:45;;;;;;;2.30;0.90;;;16.10;99.90;;;;;;5029430;28;20492;-88
2023/10/30 16:00:54;;;;;;;3.43;1.10;;;16.20;99.90;;;;;;5018735;28;20450;-88
2023/10/30 16:04:12;;;;;;;1.73;1.30;;;16.10;99.90;;;;;;4996218;28;20517;-88
2023/10/30 16:07:14;;;;;;;2.80;1.37;;;16.00;99.90;;;;;;4993152;28;20523;-89
2023/10/30 16:10:15;;;;;;;2.00;1.27;;;16.10;99.90;;;;;;5013620;28;20465;-89
2023/10/30 16:13:19;;;;;;;2.33;1.17;;;16.10;99.90;;;;;;5024135;28;20473;-89
2023/10/30 16:16:18;;;;;;;1.37;1.10;;;16.10;99.90;;;;;;4997928;28;20490;-87
2023/10/30 16:19:22;;;;;;;3.73;1.50;;;16.10;99.90;;;;;;5010738;28;20449;-87
2023/10/30 16:22:16;;;;;;;4.70;1.70;;;16.10;99.90;;;;;;4987461;28;20505;-86
2023/10/30 16:25:09;;;;;;;1.60;1.17;;;16.10;99.90;;;;;;4992647;28;20445;-86
2023/10/30 16:28:03;;;;;;;2.13;1.60;;;16.00;99.90;;;;;;5012910;28;20441;-86
2023/10/30 16:30:50;;;;;;;2.80;1.70;;;15.80;99.90;;;;;;5002546;28;20979;-86
2023/10/30 16:33:53;;;;;;;2.83;1.77;;;15.90;99.90;;;;;;4984824;28;20475;-87
2023/10/30 16:36:32;;;;;;;2.60;1.90;;;15.90;99.90;;;;;;5000594;28;20862;-86
2023/10/30 16:39:30;;;;;;;1.60;1.50;;;15.80;99.90;;;;;;5003757;28;20462;-88
2023/10/30 16:42:11;;;;;;;3.13;1.67;;;15.70;99.90;;;;;;5021770;28;20494;-87
2023/10/30 16:44:51;;;;;;;3.63;1.63;;;15.70;99.90;;;;;;5013217;28;20538;-88
2023/10/30 16:47:44;;;;;;;4.70;1.70;;;15.60;99.90;;;;;;5002631;28;20557;-87
2023/10/30 16:51:27;;;;;;;3.87;1.83;;;15.60;99.90;;;;;;4998513;28;20464;-86
2023/10/30 16:54:03;;;;;;;2.33;1.63;;;15.40;99.90;;;;;;4953773;28;20496;-87
2023/10/30 16:56:43;;;;;;;1.77;1.63;;;15.40;99.90;;;;;;5016531;28;20550;-87
2023/10/30 16:59:24;;;;;;;3.03;1.50;;;15.30;99.90;;;;;;5001201;28;20595;-88
2023/10/30 17:02:13;;;;;;;2.47;1.90;;;15.30;99.90;;;;;;5009406;28;20450;-87
2023/10/30 17:04:49;;;;;;;1.53;1.43;;;15.30;99.90;;;;;;4993173;28;20466;-87
2023/10/30 17:07:32;;;;;;;3.03;2.80;;;15.40;99.90;;;;;;5004508;28;20477;-90
2023/10/30 17:10:22;;;;;;;2.47;1.80;;;15.40;99.90;;;;;;4997952;28;20504;-88
2023/10/30 17:12:56;;;;;;;2.20;1.60;;;15.40;99.90;;;;;;4993180;28;20479;-86
2023/10/30 17:16:04;;;;;;;1.53;1.43;;;15.40;99.90;;;;;;5014071;28;20965;-87
2023/10/30 17:18:53;;;;;;;2.33;2.10;;;15.30;99.90;;;;;;4970419;28;20443;-87
2023/10/30 17:21:36;;;;;;;2.23;1.70;;;15.30;99.90;;;;;;4997049;28;20508;-88
2023/10/30 17:24:54;;;;;;;3.03;2.10;;;15.30;99.90;;;;;;5000566;28;20434;-89
2023/10/30 17:27:38;;;;;;;2.10;1.47;;;15.20;99.90;;;;;;4988682;28;20453;-88
2023/10/30 17:30:28;;;;;;;2.27;1.57;;;15.20;99.90;;;;;;4998493;28;20458;-89
2023/10/30 17:33:17;;;;;;;2.47;1.80;;;15.20;99.90;;;;;;5003242;28;20475;-88
2023/10/30 17:35:55;;;;;;;2.40;2.20;;;15.20;99.90;;;;;;5004116;28;20560;-91
2023/10/30 17:38:55;;;;;;;2.17;2.00;;;15.20;99.90;;;;;;4998994;28;20451;-88
2023/10/30 17:41:50;;;;;;;2.30;2.10;;;15.20;99.90;;;;;;4995165;28;20517;-87
2023/10/30 17:44:30;;;;;;;2.30;2.20;;;15.20;99.90;;;;;;4999496;28;20456;-88
2023/10/30 17:47:10;;;;;;;2.33;2.10;;;15.20;99.90;;;;;;4989760;28;20451;-87
2023/10/30 17:50:15;;;;;;;3.83;2.30;;;15.20;99.90;;;;;;4997786;28;20450;-88
2023/10/30 17:53:27;;;;;;;3.83;2.80;;;15.10;99.90;;;;;;5021329;28;20477;-88
2023/10/30 17:56:16;;;;;;;3.37;2.20;;;15.10;99.90;;;;;;5008389;28;20494;-86
2023/10/30 17:59:05;;;;;;;3.00;2.70;;;15.10;99.90;;;;;;4996303;28;20454;-87
2023/10/30 18:02:03;;;;;;;3.30;2.90;;;15.10;99.90;;;;;;4987329;28;20454;-86
2023/10/30 18:05:02;;;;;;;2.80;2.60;;;15.00;99.90;;;;;;5003690;28;20461;-88
2023/10/30 18:07:53;;;;;;;4.87;2.87;;;15.10;99.90;;;;;;5006831;28;20509;-88
2023/10/30 18:10:46;;;;;;;3.40;3.00;;;15.10;99.90;;;;;;5011663;28;20581;-87
2023/10/30 18:13:37;;;;;;;3.60;3.23;;;15.20;99.90;;;;;;5002217;28;20471;-87
2023/10/30 18:16:34;;;;;;;5.07;3.47;;;15.20;99.90;;;;;;5015899;28;20505;-88
2023/10/30 18:19:50;;;;;;;;;;;;;;;;;;;;;
2023/10/30 18:22:48;;;;;;;6.33;3.30;;;15.00;99.90;;;;;;4986350;28;20464;-87
2023/10/30 18:25:48;;;;;;;5.90;3.27;;;15.10;99.90;;;;;;5013744;28;20442;-88
2023/10/30 18:29:06;;;;;;;;;;;;;;;;;;;;;
2023/10/30 18:32:03;;;;;;;;;;;;;;;;;;;;;
2023/10/30 18:35:09;;;;;;;7.77;4.43;;;14.90;99.90;;;;;;5063500;28;20472;-88
2023/10/30 18:44:44;;;;;;;3.40;3.20;;;15.20;99.90;;;;;;5440100;23;20562;-90
2023/10/30 18:47:23;;;;;;;3.60;3.30;;;15.20;99.90;;;;;;5019838;28;20449;-89
2023/10/30 18:53:55;;;;;;;3.20;2.90;;;14.80;99.90;;;;;;5010028;28;20503;-87
2023/10/30 18:57:01;;;;;;;4.70;3.97;;;15.00;99.90;;;;;;5012340;28;20483;-89
2023/10/30 18:59:58;;;;;;;4.10;3.20;;;15.10;99.90;;;;;;5027146;28;20434;-89
2023/10/30 19:02:49;;;;;;;4.00;3.60;;;15.00;99.90;;;;;;4994221;28;20488;-88
2023/10/30 19:06:05;;;;;;;5.50;4.43;;;15.20;99.90;;;;;;4972491;28;20491;-88
2023/10/30 19:09:15;;;;;;;4.53;4.20;;;15.10;99.90;;;;;;4975898;28;20474;-87
2023/10/30 19:15:33;;;;;;;4.80;4.30;;;15.20;99.90;;;;;;5047492;23;20497;-88
2023/10/30 19:18:13;;;;;;;4.97;4.57;;;15.10;99.90;;;;;;5021394;28;20461;-86
2023/10/30 19:21:07;;;;;;;5.77;4.33;;;15.20;99.90;;;;;;5028889;28;20449;-88
2023/10/30 19:24:30;;;;;;;4.70;4.30;;;15.20;99.90;;;;;;4983796;28;20518;-88
2023/10/30 19:27:25;;;;;;;5.07;4.67;;;15.20;99.90;;;;;;5007485;28;20435;-87
2023/10/30 19:30:06;;;;;;;7.07;5.53;;;15.20;99.90;;;;;;5019053;28;20459;-89
2023/10/30 19:32:53;;;;;;;5.13;4.73;;;15.20;99.90;;;;;;5021919;28;20530;-87
2023/10/30 19:36:14;;;;;;;5.80;5.33;;;15.20;99.90;;;;;;5022128;28;20449;-89
2023/10/30 19:38:55;;;;;;;6.00;5.40;;;15.20;99.90;;;;;;5019183;28;20444;-87
2023/10/30 19:42:20;;;;;;;6.03;5.43;;;15.20;99.90;;;;;;5041817;28;20438;-86
2023/10/30 19:45:33;;;;;;;5.07;4.57;;;15.00;99.90;;;;;;5016955;28;20430;-88
2023/10/30 19:48:10;;;;;;;6.00;5.50;;;15.10;99.90;;;;;;5017958;28;20509;-86
2023/10/30 19:54:19;;;;;;;8.10;6.50;;;15.10;99.90;;;;;;5036681;28;20465;-90
2023/10/30 19:57:48;;;;;;;;;;;;;;;;;;;;;
2023/10/30 20:01:22;;;;;;;5.03;4.63;;;15.20;99.90;;;;;;5011692;28;20454;-88